createdAt,value
2023-02-08T00:03:29.144Z,99599.03
2023-02-08T00:08:33.113Z,99587.66
2023-02-08T00:13:36.253Z,99583.34
2023-02-08T00:18:41.209Z,99580.00
2023-02-08T00:23:44.889Z,99573.16
2023-02-08T00:28:48.084Z,99574.53
2023-02-08T00:33:55.433Z,99567.59
2023-02-08T00:38:58.594Z,99567.59
2023-02-08T00:44:01.737Z,99564.00
2023-02-08T00:49:06.493Z,99567.19
2023-02-08T00:54:15.217Z,99569.25
2023-02-08T00:59:18.542Z,99570.97
2023-02-08T01:04:23.281Z,99573.53
2023-02-08T01:09:26.630Z,99571.69
2023-02-08T01:14:30.075Z,99562.97
2023-02-08T01:19:36.263Z,99567.22
2023-02-08T01:24:39.767Z,99570.41
2023-02-08T01:29:43.073Z,99571.44
2023-02-08T01:34:47.643Z,99570.41
2023-02-08T01:39:50.900Z,99573.44
2023-02-08T01:45:25.539Z,99576.84
2023-02-08T01:50:34.072Z,99574.22
2023-02-08T01:55:44.523Z,99574.16
2023-02-08T02:00:50.323Z,99567.25
2023-02-08T02:06:03.023Z,99572.31
2023-02-08T02:11:07.669Z,99569.81
2023-02-08T02:16:11.101Z,99561.88
2023-02-08T02:21:36.615Z,99569.44
2023-02-08T02:27:02.945Z,99565.34
2023-02-08T02:32:29.689Z,99565.16
2023-02-08T02:37:49.623Z,99560.66
2023-02-08T02:43:19.832Z,99558.13
2023-02-08T02:48:32.552Z,99558.09
2023-02-08T02:53:47.050Z,99558.81
2023-02-08T02:58:53.320Z,99550.69
2023-02-08T03:03:58.862Z,99558.66
2023-02-08T03:09:32.320Z,99555.31
2023-02-08T03:14:45.998Z,99555.06
2023-02-08T03:19:58.422Z,99562.88
2023-02-08T03:25:07.390Z,99561.78
2023-02-08T03:30:14.435Z,99552.47
2023-02-08T03:35:24.198Z,99561.78
2023-02-08T03:40:31.336Z,99562.50
2023-02-08T03:45:40.771Z,99554.84
2023-02-08T03:50:50.725Z,99565.00
2023-02-08T03:56:01.150Z,99570.06
2023-02-08T04:01:12.236Z,99564.16
2023-02-08T04:06:17.231Z,99569.94
2023-02-08T04:11:20.907Z,99575.91
2023-02-08T04:16:24.274Z,99579.28
2023-02-08T04:21:29.060Z,99573.28
2023-02-08T04:26:32.531Z,99579.97
2023-02-08T04:31:36.267Z,99585.06
2023-02-08T04:36:41.490Z,99579.81
2023-02-08T04:41:44.760Z,99573.09
2023-02-08T04:46:47.962Z,99569.75
2023-02-08T04:51:52.659Z,99569.28
2023-02-08T04:56:56.290Z,99578.66
2023-02-08T05:02:00.488Z,99578.63
2023-02-08T05:07:06.891Z,99565.59
2023-02-08T05:12:10.611Z,99554.47
2023-02-08T05:17:15.122Z,99559.31
2023-02-08T05:22:20.163Z,99553.19
2023-02-08T05:27:23.764Z,99544.56
2023-02-08T05:32:27.124Z,99556.81
2023-02-08T05:37:32.039Z,99556.03
2023-02-08T05:42:35.412Z,99547.69
2023-02-08T05:47:38.795Z,99549.22
2023-02-08T05:52:43.603Z,99549.25
2023-02-08T05:57:46.791Z,99550.81
2023-02-08T06:02:50.291Z,99555.00
2023-02-08T06:07:55.169Z,99555.94
2023-02-08T06:12:58.518Z,99554.91
2023-02-08T06:18:02.005Z,99553.28
2023-02-08T06:23:06.927Z,99558.97
2023-02-08T06:28:10.953Z,99559.97
2023-02-08T06:33:15.825Z,99570.88
2023-02-08T06:38:20.898Z,99570.19
2023-02-08T06:43:24.322Z,99570.19
2023-02-08T06:48:27.618Z,99581.66
2023-02-08T06:53:32.503Z,99579.00
2023-02-08T06:58:35.838Z,99584.22
2023-02-08T07:03:39.194Z,99582.66
2023-02-08T07:08:44.544Z,99578.22
2023-02-08T07:13:48.808Z,99576.34
2023-02-08T07:18:52.081Z,99571.38
2023-02-08T07:23:56.696Z,99559.94
2023-02-08T07:29:00.099Z,99563.81
2023-02-08T07:34:03.485Z,99565.63
2023-02-08T07:39:08.293Z,99567.72
2023-02-08T07:44:11.611Z,99566.22
2023-02-08T07:49:15.378Z,99568.91
2023-02-08T07:54:20.107Z,99567.34
2023-02-08T07:59:23.463Z,99552.28
2023-02-08T08:04:26.877Z,99563.00
2023-02-08T08:09:35.154Z,99569.31
2023-02-08T08:14:39.391Z,99561.72
2023-02-08T08:19:43.344Z,99573.28
2023-02-08T08:24:48.078Z,99565.84
2023-02-08T08:29:51.550Z,99560.56
2023-02-08T08:34:54.772Z,99552.34
2023-02-08T08:39:59.811Z,99539.09
2023-02-08T08:45:03.528Z,99529.81
2023-02-08T08:50:07.631Z,99523.88
2023-02-08T08:55:12.306Z,99524.59
2023-02-08T09:00:16.344Z,99522.13
2023-02-08T09:05:20.013Z,99516.69
2023-02-08T09:10:24.628Z,99517.06
2023-02-08T09:15:27.713Z,99520.84
2023-02-08T09:20:30.856Z,99514.84
2023-02-08T09:25:37.183Z,99517.47
2023-02-08T09:30:41.607Z,99515.72
2023-02-08T09:35:45.044Z,99517.47
2023-02-08T09:40:59.086Z,99524.28
2023-02-08T09:46:06.640Z,99525.88
2023-02-08T09:51:22.671Z,99522.38
2023-02-08T09:56:31.268Z,99523.84
2023-02-08T10:01:37.428Z,99515.97
2023-02-08T10:06:40.761Z,99519.19
2023-02-08T10:11:56.375Z,99527.47
2023-02-08T10:17:11.343Z,99515.91
2023-02-08T10:22:28.293Z,99513.00
2023-02-08T10:27:44.499Z,99518.94
2023-02-08T10:33:01.246Z,99510.56
2023-02-08T10:38:29.702Z,99501.22
2023-02-08T10:43:47.556Z,99495.28
2023-02-08T10:49:08.244Z,99481.88
2023-02-08T10:54:13.896Z,99466.09
2023-02-08T10:59:24.661Z,99463.53
2023-02-08T11:04:28.286Z,99460.03
2023-02-08T11:09:32.842Z,99466.69
2023-02-08T11:14:47.193Z,99450.38
2023-02-08T11:19:52.029Z,99453.97
2023-02-08T11:24:58.574Z,99435.91
2023-02-08T11:30:24.696Z,99428.94
2023-02-08T11:35:36.239Z,99420.16
2023-02-08T11:40:46.048Z,99421.41
2023-02-08T11:45:51.619Z,99415.16
2023-02-08T11:51:02.000Z,99412.81
2023-02-08T11:56:09.197Z,99405.72
2023-02-08T12:01:21.727Z,99407.44
2023-02-08T12:06:40.720Z,99396.66
2023-02-08T12:11:46.662Z,99376.03
2023-02-08T12:17:04.760Z,99379.69
2023-02-08T12:22:12.214Z,99364.00
2023-02-08T12:27:33.352Z,99362.38
2023-02-08T12:32:56.969Z,99341.72
2023-02-08T12:38:26.420Z,99335.44
2023-02-08T12:43:44.491Z,99321.16
2023-02-08T12:49:06.728Z,99321.28
2023-02-08T12:54:13.480Z,99310.59
2023-02-08T12:59:24.857Z,99298.34
2023-02-08T13:04:36.057Z,99293.09
2023-02-08T13:09:44.377Z,99284.03
2023-02-08T13:14:51.479Z,99281.47
2023-02-08T13:20:01.643Z,99270.47
2023-02-08T13:25:10.617Z,99261.38
2023-02-08T13:30:21.032Z,99254.25
2023-02-08T13:35:29.544Z,99255.06
2023-02-08T13:40:35.792Z,99246.25
2023-02-08T13:45:41.366Z,99240.13
2023-02-08T13:50:49.535Z,99247.38
2023-02-08T13:55:59.674Z,99258.50
2023-02-08T14:01:14.985Z,99248.59
2023-02-08T14:06:24.231Z,99239.06
2023-02-08T14:11:43.428Z,99246.25
2023-02-08T14:16:47.634Z,99238.38
2023-02-08T14:22:03.703Z,99239.34
2023-02-08T14:27:09.708Z,99229.31
2023-02-08T14:32:25.056Z,99227.94
2023-02-08T14:37:32.594Z,99229.09
2023-02-08T14:42:56.234Z,99238.47
2023-02-08T14:48:07.898Z,99232.03
2023-02-08T14:53:44.502Z,99236.13
2023-02-08T14:58:52.325Z,99236.34
2023-02-08T15:04:00.588Z,99242.06
2023-02-08T15:09:07.846Z,99246.00
2023-02-08T15:14:20.536Z,99251.41
2023-02-08T15:19:27.217Z,99250.75
2023-02-08T15:24:32.015Z,99262.53
2023-02-08T15:29:44.825Z,99263.44
2023-02-08T15:34:54.374Z,99258.09
2023-02-08T15:40:00.489Z,99254.38
2023-02-08T15:45:04.610Z,99254.97
2023-02-08T15:50:18.052Z,99256.19
2023-02-08T15:55:23.351Z,99243.34
2023-02-08T16:00:30.734Z,99248.34
2023-02-08T16:05:35.613Z,99242.31
2023-02-08T16:10:45.252Z,99234.81
2023-02-08T16:15:52.049Z,99237.09
2023-02-08T16:20:59.559Z,99244.88
2023-02-08T16:26:22.159Z,99246.63
2023-02-08T16:31:29.523Z,99240.66
2023-02-08T16:36:37.700Z,99251.28
2023-02-08T16:42:15.920Z,99234.97
2023-02-08T16:47:27.293Z,99229.22
2023-02-08T16:52:30.508Z,99222.41
2023-02-08T16:57:43.600Z,99234.56
2023-02-08T17:02:47.415Z,99234.72
2023-02-08T17:07:51.621Z,99244.31
2023-02-08T17:13:09.835Z,99251.34
2023-02-08T17:18:19.868Z,99238.47
2023-02-08T17:23:23.107Z,99246.41
2023-02-08T17:28:28.350Z,99247.28
2023-02-08T17:33:36.435Z,99251.63
2023-02-08T17:38:41.302Z,99255.16
2023-02-08T17:43:46.399Z,99248.31
2023-02-08T17:48:49.981Z,99248.31
2023-02-08T17:53:53.396Z,99257.84
2023-02-08T17:59:00.931Z,99257.84
2023-02-08T18:04:04.087Z,99253.53
2023-02-08T18:09:07.365Z,99243.16
2023-02-08T18:14:11.984Z,99241.47
2023-02-08T18:19:15.394Z,99242.31
2023-02-08T18:24:19.083Z,99248.34
2023-02-08T18:29:23.745Z,99239.69
2023-02-08T18:34:27.544Z,99225.88
2023-02-08T18:39:31.271Z,99226.69
2023-02-08T18:44:36.908Z,99223.22
2023-02-08T18:49:41.661Z,99226.63
2023-02-08T18:54:44.917Z,99218.00
2023-02-08T18:59:50.770Z,99216.19
2023-02-08T19:04:53.975Z,99213.50
2023-02-08T19:09:57.145Z,99205.81
2023-02-08T19:15:02.080Z,99215.31
2023-02-08T19:20:07.254Z,99216.22
2023-02-08T19:25:11.792Z,99216.22
2023-02-08T19:30:17.351Z,99211.16
2023-02-08T19:35:23.125Z,99201.63
2023-02-08T19:40:27.518Z,99199.81
2023-02-08T19:45:32.894Z,99205.03
2023-02-08T19:50:36.189Z,99197.22
2023-02-08T19:55:40.060Z,99189.41
2023-02-08T20:00:45.421Z,99197.16
2023-02-08T20:05:50.037Z,99178.16
2023-02-08T20:10:54.239Z,99178.94
2023-02-08T20:16:01.083Z,99170.47
2023-02-08T20:21:05.625Z,99170.34
2023-02-08T20:26:11.810Z,99162.59
2023-02-08T20:31:19.225Z,99161.63
2023-02-08T20:36:25.952Z,99157.28
2023-02-08T20:41:31.417Z,99149.66
2023-02-08T20:46:37.965Z,99151.53
2023-02-08T20:51:41.678Z,99146.38
2023-02-08T20:56:45.692Z,99144.59
2023-02-08T21:01:50.862Z,99142.03
2023-02-08T21:06:55.152Z,99137.75
2023-02-08T21:11:58.757Z,99135.13
2023-02-08T21:17:03.636Z,99124.78
2023-02-08T21:22:07.076Z,99117.03
2023-02-08T21:27:10.499Z,99103.19
2023-02-08T21:32:15.180Z,99099.72
2023-02-08T21:37:18.452Z,99093.69
2023-02-08T21:42:21.686Z,99087.59
2023-02-08T21:47:26.842Z,99086.78
2023-02-08T21:52:47.258Z,99083.34
2023-02-08T21:57:50.495Z,99078.16
2023-02-08T22:02:55.150Z,99075.56
2023-02-08T22:07:59.286Z,99072.97
2023-02-08T22:13:02.477Z,99069.53
2023-02-08T22:18:07.404Z,99067.81
2023-02-08T22:23:14.902Z,99055.72
2023-02-08T22:28:18.188Z,99048.75
2023-02-08T22:33:22.842Z,99055.56
2023-02-08T22:38:26.464Z,99046.06
2023-02-08T22:43:29.978Z,99052.97
2023-02-08T22:48:35.094Z,99058.16
2023-02-08T22:53:38.454Z,99053.75
2023-02-08T22:58:43.444Z,99049.56
2023-02-08T23:03:48.221Z,99050.44
2023-02-08T23:08:51.577Z,99053.88
2023-02-08T23:13:54.950Z,99045.28
2023-02-08T23:18:59.870Z,99036.66
2023-02-08T23:24:03.060Z,99032.34
2023-02-08T23:29:06.355Z,99040.97
2023-02-08T23:34:12.662Z,99036.69
2023-02-08T23:39:15.976Z,99041.88
2023-02-08T23:44:19.226Z,99047.91
2023-02-08T23:49:23.869Z,99046.22
2023-02-08T23:54:27.087Z,99041.00
2023-02-08T23:59:30.689Z,99051.38
